Airfield :
LOGIN :

Register | Disclaimer

   EN    FR    IT 

 










Legend :    VFR   Marginal VFR   IFR   Intensive IFR   Very Intensive IFR
Visi :
Ceiling :
>= 8 km
>= 3000ft
5 to 8 km
1000 to 3000 ft
1500m to 5 km
500 to 1000 ft
800 to 1500m
200 to 500 ft
< 800m
< 200 ft
Symbols :   Thunderstorms  Fog  Heavy snow  Heavy precipitations  Wind > 20 kt
SIGMETs :     Misc.  Thunderstorms  Icing  Turbulence  Mountain Waves  Volcanic Ashes







- Airport Elevation : 38 ft
- IATA code : BOH
- Download approach charts


EGHH - Bournemouth

CURRENT METAR :
  • 251420Z 20014G24KT 9999 FEW017 SCT021 14/08 Q0999

EXPIRED METARs :
  • 251350Z 19013KT 140V220 9999 FEW017 SCT021 14/08 Q0999
  • 251320Z 20017KT 9999 FEW015 SCT028 14/08 Q0999
  • 251250Z 19018KT 9999 FEW018 SCT026 14/07 Q0998
  • 251220Z 20019KT 160V220 9999 SCT018 14/09 Q0998
  • 251150Z 20019KT 9999 SCT018 13/08 Q0997

TAF TAF EGHH
Valid from the 25 at 15:00 until the 26 at 00:00 UTC


251406Z 2515/2524 19016KT 9999 SCT025
PROB30
TEMPO 2515/2518 7000 SHRA
ATIS : +44 1202 364 151
Met : +44 1202 364 158 (TAF)
No reported NOTAMs for that airfield.
2 SIGMETs reported for the London FIR (EGTT) :
 
Frequent thunderstorms
EGTT SIGMET 03 VALID 251410/251600 EGRR
EGTT LONDON FIR FRQ TS FCST WI N5310 W00100 - N5249 W00049 - N5243 W00303 - N5333 W00311 - N5310 W00100 TOP FL270 MOV N 15KT NC=
Embedded thunderstorms
EGTT SIGMET 02 VALID 251410/251700 EGRR
EGTT LONDON FIR EMBD TS FCST WI N5429 W00033 - N5325 E00024 - N5404 W00301 - N5438 W00309 - N5429 W00033 TOP FL270 MOV N 15KT NC=



MET'MAP, your aeronautical weather chart ! - Copyright ORBIFLY December 2007 - Disclaimer

ORBIFLY MET'MAP TEAM :

Programming & Development : Alexandra Zaïnal
Concept & Development : Baudouin d'Aumeries
Co-Development & Prog : Marc-Olivier Méhu
Technical & hardware support : Manuel Goepfert

Contact : metmap@orbifly.com




SOURCES & CREDITS :

   NOAA